sensor_id;sensor_type;location;lat;lon;timestamp;P1;durP1;ratioP1;P2;durP2;ratioP2
48327;SDS011;34136;51.022;7.082;2023-06-22T00:02:12;5.65;;;5.07;;
48327;SDS011;34136;51.022;7.082;2023-06-22T00:04:58;5.57;;;4.78;;
48327;SDS011;34136;51.022;7.082;2023-06-22T00:07:44;5.10;;;4.60;;
48327;SDS011;34136;51.022;7.082;2023-06-22T00:10:30;6.13;;;4.35;;
48327;SDS011;34136;51.022;7.082;2023-06-22T00:13:16;6.32;;;4.68;;
48327;SDS011;34136;51.022;7.082;2023-06-22T00:16:03;5.47;;;4.57;;
48327;SDS011;34136;51.022;7.082;2023-06-22T00:18:49;4.97;;;4.38;;
48327;SDS011;34136;51.022;7.082;2023-06-22T00:21:35;5.28;;;4.28;;
48327;SDS011;34136;51.022;7.082;2023-06-22T00:24:21;5.45;;;4.35;;
48327;SDS011;34136;51.022;7.082;2023-06-22T00:27:07;5.47;;;4.20;;
48327;SDS011;34136;51.022;7.082;2023-06-22T00:29:54;4.47;;;4.07;;
48327;SDS011;34136;51.022;7.082;2023-06-22T00:32:40;5.65;;;3.85;;
48327;SDS011;34136;51.022;7.082;2023-06-22T00:35:27;6.00;;;4.28;;
48327;SDS011;34136;51.022;7.082;2023-06-22T00:38:13;6.00;;;4.30;;
48327;SDS011;34136;51.022;7.082;2023-06-22T00:41:01;6.15;;;4.13;;
48327;SDS011;34136;51.022;7.082;2023-06-22T00:43:47;4.65;;;4.18;;
48327;SDS011;34136;51.022;7.082;2023-06-22T00:46:33;7.13;;;4.45;;
48327;SDS011;34136;51.022;7.082;2023-06-22T00:49:20;5.28;;;3.80;;
48327;SDS011;34136;51.022;7.082;2023-06-22T00:52:07;5.35;;;3.80;;
48327;SDS011;34136;51.022;7.082;2023-06-22T00:54:54;6.47;;;4.00;;
48327;SDS011;34136;51.022;7.082;2023-06-22T00:57:42;4.60;;;4.07;;
48327;SDS011;34136;51.022;7.082;2023-06-22T01:00:28;5.30;;;4.10;;
48327;SDS011;34136;51.022;7.082;2023-06-22T01:03:15;5.43;;;4.30;;
48327;SDS011;34136;51.022;7.082;2023-06-22T01:06:08;6.35;;;4.40;;
48327;SDS011;34136;51.022;7.082;2023-06-22T01:09:08;5.63;;;4.53;;
48327;SDS011;34136;51.022;7.082;2023-06-22T01:12:01;5.07;;;4.28;;
48327;SDS011;34136;51.022;7.082;2023-06-22T01:14:55;4.80;;;4.30;;
48327;SDS011;34136;51.022;7.082;2023-06-22T01:17:47;7.05;;;4.85;;
48327;SDS011;34136;51.022;7.082;2023-06-22T01:20:35;4.75;;;4.30;;
48327;SDS011;34136;51.022;7.082;2023-06-22T01:23:26;5.20;;;4.60;;
48327;SDS011;34136;51.022;7.082;2023-06-22T01:29:22;6.65;;;4.85;;
48327;SDS011;34136;51.022;7.082;2023-06-22T01:32:11;4.50;;;4.10;;
48327;SDS011;34136;51.022;7.082;2023-06-22T01:35:00;6.60;;;4.35;;
48327;SDS011;34136;51.022;7.082;2023-06-22T01:37:50;5.22;;;4.22;;
48327;SDS011;34136;51.022;7.082;2023-06-22T01:40:38;4.68;;;4.13;;
48327;SDS011;34136;51.022;7.082;2023-06-22T01:43:27;6.65;;;4.60;;
48327;SDS011;34136;51.022;7.082;2023-06-22T01:46:14;4.63;;;4.22;;
48327;SDS011;34136;51.022;7.082;2023-06-22T01:49:02;4.60;;;3.83;;
48327;SDS011;34136;51.022;7.082;2023-06-22T01:51:49;5.45;;;4.30;;
48327;SDS011;34136;51.022;7.082;2023-06-22T01:54:37;4.85;;;4.45;;
48327;SDS011;34136;51.022;7.082;2023-06-22T01:57:26;5.28;;;4.07;;
48327;SDS011;34136;51.022;7.082;2023-06-22T02:00:14;6.93;;;4.55;;
48327;SDS011;34136;51.022;7.082;2023-06-22T02:03:08;4.80;;;4.18;;
48327;SDS011;34136;51.022;7.082;2023-06-22T02:06:12;6.20;;;4.18;;
48327;SDS011;34136;51.022;7.082;2023-06-22T02:09:16;4.20;;;3.78;;
48327;SDS011;34136;51.022;7.082;2023-06-22T02:12:04;7.45;;;4.30;;
48327;SDS011;34136;51.022;7.082;2023-06-22T02:14:52;5.05;;;4.60;;
48327;SDS011;34136;51.022;7.082;2023-06-22T02:17:39;9.05;;;4.40;;
48327;SDS011;34136;51.022;7.082;2023-06-22T02:20:26;5.15;;;3.90;;
48327;SDS011;34136;51.022;7.082;2023-06-22T02:23:12;5.10;;;4.60;;
48327;SDS011;34136;51.022;7.082;2023-06-22T02:25:59;5.07;;;4.20;;
48327;SDS011;34136;51.022;7.082;2023-06-22T02:28:45;4.47;;;4.07;;
48327;SDS011;34136;51.022;7.082;2023-06-22T02:31:31;5.35;;;4.13;;
48327;SDS011;34136;51.022;7.082;2023-06-22T02:34:18;7.13;;;4.30;;
48327;SDS011;34136;51.022;7.082;2023-06-22T02:37:04;4.95;;;4.03;;
48327;SDS011;34136;51.022;7.082;2023-06-22T02:39:51;4.90;;;4.13;;
48327;SDS011;34136;51.022;7.082;2023-06-22T02:42:39;4.28;;;3.88;;
48327;SDS011;34136;51.022;7.082;2023-06-22T02:45:26;4.38;;;3.95;;
48327;SDS011;34136;51.022;7.082;2023-06-22T02:48:12;5.65;;;3.65;;
48327;SDS011;34136;51.022;7.082;2023-06-22T02:50:58;4.35;;;3.90;;
48327;SDS011;34136;51.022;7.082;2023-06-22T02:53:45;4.38;;;3.90;;
48327;SDS011;34136;51.022;7.082;2023-06-22T02:56:33;4.32;;;3.65;;
48327;SDS011;34136;51.022;7.082;2023-06-22T02:59:20;4.95;;;4.32;;
48327;SDS011;34136;51.022;7.082;2023-06-22T03:02:07;7.68;;;4.28;;
48327;SDS011;34136;51.022;7.082;2023-06-22T03:04:54;8.07;;;4.47;;
48327;SDS011;34136;51.022;7.082;2023-06-22T03:07:41;5.22;;;4.28;;
48327;SDS011;34136;51.022;7.082;2023-06-22T03:10:28;5.07;;;3.83;;
48327;SDS011;34136;51.022;7.082;2023-06-22T03:13:14;4.93;;;3.75;;
48327;SDS011;34136;51.022;7.082;2023-06-22T03:16:01;5.10;;;4.03;;
48327;SDS011;34136;51.022;7.082;2023-06-22T03:18:47;5.43;;;3.90;;
48327;SDS011;34136;51.022;7.082;2023-06-22T03:21:33;5.40;;;4.13;;
48327;SDS011;34136;51.022;7.082;2023-06-22T03:24:20;7.28;;;4.32;;
48327;SDS011;34136;51.022;7.082;2023-06-22T03:27:06;6.05;;;4.28;;
48327;SDS011;34136;51.022;7.082;2023-06-22T03:29:53;4.50;;;3.92;;
48327;SDS011;34136;51.022;7.082;2023-06-22T03:32:39;5.00;;;4.00;;
48327;SDS011;34136;51.022;7.082;2023-06-22T03:35:26;6.78;;;3.88;;
48327;SDS011;34136;51.022;7.082;2023-06-22T03:38:12;4.28;;;3.88;;
48327;SDS011;34136;51.022;7.082;2023-06-22T03:40:58;5.10;;;3.95;;
48327;SDS011;34136;51.022;7.082;2023-06-22T03:43:45;5.72;;;4.07;;
48327;SDS011;34136;51.022;7.082;2023-06-22T03:46:31;5.03;;;4.18;;
48327;SDS011;34136;51.022;7.082;2023-06-22T03:49:18;5.40;;;4.15;;
48327;SDS011;34136;51.022;7.082;2023-06-22T03:52:04;4.28;;;3.88;;
48327;SDS011;34136;51.022;7.082;2023-06-22T03:54:52;5.53;;;4.30;;
48327;SDS011;34136;51.022;7.082;2023-06-22T03:57:38;5.30;;;4.45;;
48327;SDS011;34136;51.022;7.082;2023-06-22T04:00:24;5.45;;;4.18;;
48327;SDS011;34136;51.022;7.082;2023-06-22T04:03:11;4.43;;;4.03;;
48327;SDS011;34136;51.022;7.082;2023-06-22T04:05:57;5.32;;;4.60;;
48327;SDS011;34136;51.022;7.082;2023-06-22T04:08:45;5.35;;;4.45;;
48327;SDS011;34136;51.022;7.082;2023-06-22T04:11:31;6.05;;;4.65;;
48327;SDS011;34136;51.022;7.082;2023-06-22T04:14:18;5.45;;;4.70;;
48327;SDS011;34136;51.022;7.082;2023-06-22T04:17:05;5.13;;;4.68;;
48327;SDS011;34136;51.022;7.082;2023-06-22T04:19:51;7.55;;;4.88;;
48327;SDS011;34136;51.022;7.082;2023-06-22T04:22:38;5.57;;;4.90;;
48327;SDS011;34136;51.022;7.082;2023-06-22T04:25:24;8.68;;;4.97;;
48327;SDS011;34136;51.022;7.082;2023-06-22T04:28:10;6.43;;;5.28;;
48327;SDS011;34136;51.022;7.082;2023-06-22T04:30:57;5.32;;;4.82;;
48327;SDS011;34136;51.022;7.082;2023-06-22T04:33:43;8.35;;;5.53;;
48327;SDS011;34136;51.022;7.082;2023-06-22T04:36:29;6.05;;;5.15;;
48327;SDS011;34136;51.022;7.082;2023-06-22T04:39:16;5.63;;;5.13;;
48327;SDS011;34136;51.022;7.082;2023-06-22T04:42:02;6.18;;;5.57;;
48327;SDS011;34136;51.022;7.082;2023-06-22T04:44:49;7.10;;;5.00;;
48327;SDS011;34136;51.022;7.082;2023-06-22T04:47:35;6.13;;;5.50;;
48327;SDS011;34136;51.022;7.082;2023-06-22T04:50:21;7.30;;;5.43;;
48327;SDS011;34136;51.022;7.082;2023-06-22T04:53:07;6.28;;;5.25;;
48327;SDS011;34136;51.022;7.082;2023-06-22T04:55:53;6.78;;;5.93;;
48327;SDS011;34136;51.022;7.082;2023-06-22T04:58:40;6.45;;;5.85;;
48327;SDS011;34136;51.022;7.082;2023-06-22T05:01:26;6.65;;;5.95;;
48327;SDS011;34136;51.022;7.082;2023-06-22T05:04:12;6.53;;;5.93;;
48327;SDS011;34136;51.022;7.082;2023-06-22T05:06:59;7.35;;;6.13;;
48327;SDS011;34136;51.022;7.082;2023-06-22T05:09:45;6.53;;;5.93;;
48327;SDS011;34136;51.022;7.082;2023-06-22T05:12:32;7.05;;;6.43;;
48327;SDS011;34136;51.022;7.082;2023-06-22T05:15:18;6.88;;;6.22;;
48327;SDS011;34136;51.022;7.082;2023-06-22T05:18:05;7.30;;;6.50;;
48327;SDS011;34136;51.022;7.082;2023-06-22T05:20:52;7.18;;;6.47;;
48327;SDS011;34136;51.022;7.082;2023-06-22T05:23:38;6.90;;;6.18;;
48327;SDS011;34136;51.022;7.082;2023-06-22T05:26:24;9.40;;;6.72;;
48327;SDS011;34136;51.022;7.082;2023-06-22T05:29:11;7.82;;;6.75;;
48327;SDS011;34136;51.022;7.082;2023-06-22T05:31:57;6.72;;;6.13;;
48327;SDS011;34136;51.022;7.082;2023-06-22T05:34:44;7.47;;;6.78;;
48327;SDS011;34136;51.022;7.082;2023-06-22T05:37:31;7.68;;;6.93;;
48327;SDS011;34136;51.022;7.082;2023-06-22T05:40:17;8.85;;;7.97;;
48327;SDS011;34136;51.022;7.082;2023-06-22T05:43:03;7.97;;;7.15;;
48327;SDS011;34136;51.022;7.082;2023-06-22T05:45:49;7.65;;;6.95;;
48327;SDS011;34136;51.022;7.082;2023-06-22T05:48:35;7.70;;;6.95;;
48327;SDS011;34136;51.022;7.082;2023-06-22T05:51:22;7.25;;;6.57;;
48327;SDS011;34136;51.022;7.082;2023-06-22T05:54:08;8.38;;;6.85;;
48327;SDS011;34136;51.022;7.082;2023-06-22T05:56:54;7.60;;;6.97;;
48327;SDS011;34136;51.022;7.082;2023-06-22T05:59:41;8.88;;;7.15;;
48327;SDS011;34136;51.022;7.082;2023-06-22T06:02:27;7.05;;;6.35;;
48327;SDS011;34136;51.022;7.082;2023-06-22T06:05:14;7.78;;;6.97;;
48327;SDS011;34136;51.022;7.082;2023-06-22T06:08:01;8.80;;;7.25;;
48327;SDS011;34136;51.022;7.082;2023-06-22T06:10:49;8.45;;;7.60;;
48327;SDS011;34136;51.022;7.082;2023-06-22T06:13:35;8.13;;;7.43;;
48327;SDS011;34136;51.022;7.082;2023-06-22T06:16:21;10.30;;;7.50;;
48327;SDS011;34136;51.022;7.082;2023-06-22T06:19:08;8.68;;;7.95;;
48327;SDS011;34136;51.022;7.082;2023-06-22T06:21:55;8.98;;;8.18;;
48327;SDS011;34136;51.022;7.082;2023-06-22T06:24:41;8.48;;;7.78;;
48327;SDS011;34136;51.022;7.082;2023-06-22T06:27:27;7.82;;;7.22;;
48327;SDS011;34136;51.022;7.082;2023-06-22T06:30:14;8.80;;;7.90;;
48327;SDS011;34136;51.022;7.082;2023-06-22T06:33:01;7.85;;;7.15;;
48327;SDS011;34136;51.022;7.082;2023-06-22T06:35:47;7.82;;;7.13;;
48327;SDS011;34136;51.022;7.082;2023-06-22T06:38:34;8.18;;;7.47;;
48327;SDS011;34136;51.022;7.082;2023-06-22T06:41:20;8.75;;;7.88;;
48327;SDS011;34136;51.022;7.082;2023-06-22T06:44:07;8.05;;;7.25;;
48327;SDS011;34136;51.022;7.082;2023-06-22T06:46:53;8.63;;;7.82;;
48327;SDS011;34136;51.022;7.082;2023-06-22T06:49:39;7.72;;;7.03;;
48327;SDS011;34136;51.022;7.082;2023-06-22T06:52:26;7.78;;;7.07;;
48327;SDS011;34136;51.022;7.082;2023-06-22T06:55:12;8.50;;;7.70;;
48327;SDS011;34136;51.022;7.082;2023-06-22T06:57:59;8.00;;;7.22;;
48327;SDS011;34136;51.022;7.082;2023-06-22T07:00:45;7.55;;;6.85;;
48327;SDS011;34136;51.022;7.082;2023-06-22T07:03:31;7.60;;;6.78;;
48327;SDS011;34136;51.022;7.082;2023-06-22T07:06:17;7.88;;;7.15;;
48327;SDS011;34136;51.022;7.082;2023-06-22T07:09:04;7.15;;;6.53;;
48327;SDS011;34136;51.022;7.082;2023-06-22T07:11:50;7.18;;;6.50;;
48327;SDS011;34136;51.022;7.082;2023-06-22T07:14:36;7.10;;;6.47;;
48327;SDS011;34136;51.022;7.082;2023-06-22T07:17:23;7.38;;;6.53;;
48327;SDS011;34136;51.022;7.082;2023-06-22T07:20:09;8.82;;;6.80;;
48327;SDS011;34136;51.022;7.082;2023-06-22T07:22:56;7.30;;;6.63;;
48327;SDS011;34136;51.022;7.082;2023-06-22T07:25:42;7.18;;;6.57;;
48327;SDS011;34136;51.022;7.082;2023-06-22T07:28:28;6.78;;;6.00;;
48327;SDS011;34136;51.022;7.082;2023-06-22T07:31:15;6.97;;;5.97;;
48327;SDS011;34136;51.022;7.082;2023-06-22T07:34:01;7.57;;;6.88;;
48327;SDS011;34136;51.022;7.082;2023-06-22T07:36:48;7.13;;;6.45;;
48327;SDS011;34136;51.022;7.082;2023-06-22T07:39:34;7.18;;;6.53;;
48327;SDS011;34136;51.022;7.082;2023-06-22T07:42:21;6.97;;;6.25;;
48327;SDS011;34136;51.022;7.082;2023-06-22T07:45:07;6.38;;;5.78;;
48327;SDS011;34136;51.022;7.082;2023-06-22T07:47:54;6.53;;;5.93;;
48327;SDS011;34136;51.022;7.082;2023-06-22T07:50:40;7.65;;;6.35;;
48327;SDS011;34136;51.022;7.082;2023-06-22T07:53:26;7.28;;;6.35;;
48327;SDS011;34136;51.022;7.082;2023-06-22T07:56:13;7.50;;;6.72;;
48327;SDS011;34136;51.022;7.082;2023-06-22T07:59:00;8.57;;;7.03;;
48327;SDS011;34136;51.022;7.082;2023-06-22T08:01:46;7.10;;;6.50;;
48327;SDS011;34136;51.022;7.082;2023-06-22T08:04:32;7.20;;;6.60;;
48327;SDS011;34136;51.022;7.082;2023-06-22T08:07:19;7.40;;;6.70;;
48327;SDS011;34136;51.022;7.082;2023-06-22T08:10:05;7.50;;;6.90;;
48327;SDS011;34136;51.022;7.082;2023-06-22T08:12:52;7.80;;;7.10;;
48327;SDS011;34136;51.022;7.082;2023-06-22T08:15:39;7.88;;;7.18;;
48327;SDS011;34136;51.022;7.082;2023-06-22T08:18:25;8.23;;;7.53;;
48327;SDS011;34136;51.022;7.082;2023-06-22T08:21:11;8.00;;;7.20;;
48327;SDS011;34136;51.022;7.082;2023-06-22T08:23:57;7.47;;;6.88;;
48327;SDS011;34136;51.022;7.082;2023-06-22T08:26:43;9.07;;;7.65;;
48327;SDS011;34136;51.022;7.082;2023-06-22T08:29:30;7.82;;;7.10;;
48327;SDS011;34136;51.022;7.082;2023-06-22T08:32:16;7.70;;;7.00;;
48327;SDS011;34136;51.022;7.082;2023-06-22T08:35:03;8.90;;;7.50;;
48327;SDS011;34136;51.022;7.082;2023-06-22T08:37:50;7.55;;;6.90;;
48327;SDS011;34136;51.022;7.082;2023-06-22T08:40:37;7.63;;;6.93;;
48327;SDS011;34136;51.022;7.082;2023-06-22T08:43:23;6.97;;;6.38;;
48327;SDS011;34136;51.022;7.082;2023-06-22T08:46:13;6.43;;;5.88;;
48327;SDS011;34136;51.022;7.082;2023-06-22T08:48:59;7.22;;;6.53;;
48327;SDS011;34136;51.022;7.082;2023-06-22T08:51:46;7.03;;;6.43;;
48327;SDS011;34136;51.022;7.082;2023-06-22T08:54:32;6.70;;;6.00;;
48327;SDS011;34136;51.022;7.082;2023-06-22T08:57:18;6.88;;;6.28;;
48327;SDS011;34136;51.022;7.082;2023-06-22T09:00:06;7.05;;;6.45;;
48327;SDS011;34136;51.022;7.082;2023-06-22T09:02:53;7.00;;;6.40;;
48327;SDS011;34136;51.022;7.082;2023-06-22T09:05:40;6.70;;;6.10;;
48327;SDS011;34136;51.022;7.082;2023-06-22T09:08:26;6.75;;;6.15;;
48327;SDS011;34136;51.022;7.082;2023-06-22T09:11:13;6.75;;;6.13;;
48327;SDS011;34136;51.022;7.082;2023-06-22T09:13:59;6.63;;;5.93;;
48327;SDS011;34136;51.022;7.082;2023-06-22T09:16:46;6.57;;;5.97;;
48327;SDS011;34136;51.022;7.082;2023-06-22T09:19:32;7.07;;;6.38;;
48327;SDS011;34136;51.022;7.082;2023-06-22T09:22:19;6.88;;;6.28;;
48327;SDS011;34136;51.022;7.082;2023-06-22T09:25:05;6.18;;;5.68;;
48327;SDS011;34136;51.022;7.082;2023-06-22T09:27:52;6.22;;;5.63;;
48327;SDS011;34136;51.022;7.082;2023-06-22T09:30:38;7.68;;;6.00;;
48327;SDS011;34136;51.022;7.082;2023-06-22T09:33:26;6.65;;;6.05;;
48327;SDS011;34136;51.022;7.082;2023-06-22T09:36:12;7.00;;;6.30;;
48327;SDS011;34136;51.022;7.082;2023-06-22T09:38:59;6.00;;;5.50;;
48327;SDS011;34136;51.022;7.082;2023-06-22T09:41:45;6.88;;;6.18;;
48327;SDS011;34136;51.022;7.082;2023-06-22T09:44:32;6.28;;;5.60;;
48327;SDS011;34136;51.022;7.082;2023-06-22T09:47:18;6.88;;;6.18;;
48327;SDS011;34136;51.022;7.082;2023-06-22T09:50:05;7.80;;;6.50;;
48327;SDS011;34136;51.022;7.082;2023-06-22T09:52:52;6.97;;;5.80;;
48327;SDS011;34136;51.022;7.082;2023-06-22T09:55:38;6.70;;;6.10;;
48327;SDS011;34136;51.022;7.082;2023-06-22T09:58:25;6.20;;;5.60;;
48327;SDS011;34136;51.022;7.082;2023-06-22T10:01:11;6.50;;;5.90;;
48327;SDS011;34136;51.022;7.082;2023-06-22T10:03:58;6.28;;;5.68;;
48327;SDS011;34136;51.022;7.082;2023-06-22T10:06:44;8.38;;;6.55;;
48327;SDS011;34136;51.022;7.082;2023-06-22T10:09:30;6.75;;;5.85;;
48327;SDS011;34136;51.022;7.082;2023-06-22T10:12:16;6.38;;;5.78;;
48327;SDS011;34136;51.022;7.082;2023-06-22T10:15:03;6.85;;;6.22;;
48327;SDS011;34136;51.022;7.082;2023-06-22T10:17:50;9.98;;;6.13;;
48327;SDS011;34136;51.022;7.082;2023-06-22T10:20:37;7.05;;;6.45;;
48327;SDS011;34136;51.022;7.082;2023-06-22T10:23:23;8.48;;;6.47;;
48327;SDS011;34136;51.022;7.082;2023-06-22T10:26:09;8.23;;;6.65;;
48327;SDS011;34136;51.022;7.082;2023-06-22T10:28:58;7.07;;;6.45;;
48327;SDS011;34136;51.022;7.082;2023-06-22T10:31:44;6.60;;;6.00;;
48327;SDS011;34136;51.022;7.082;2023-06-22T10:34:30;7.40;;;6.53;;
48327;SDS011;34136;51.022;7.082;2023-06-22T10:37:17;7.43;;;6.72;;
48327;SDS011;34136;51.022;7.082;2023-06-22T10:40:04;11.63;;;7.47;;
48327;SDS011;34136;51.022;7.082;2023-06-22T10:42:51;9.82;;;7.20;;
48327;SDS011;34136;51.022;7.082;2023-06-22T10:45:37;7.82;;;7.03;;
48327;SDS011;34136;51.022;7.082;2023-06-22T10:48:23;8.98;;;7.40;;
48327;SDS011;34136;51.022;7.082;2023-06-22T10:51:09;10.32;;;8.35;;
48327;SDS011;34136;51.022;7.082;2023-06-22T10:53:56;13.25;;;8.65;;
48327;SDS011;34136;51.022;7.082;2023-06-22T10:56:42;9.88;;;8.50;;
48327;SDS011;34136;51.022;7.082;2023-06-22T10:59:29;11.75;;;8.73;;
48327;SDS011;34136;51.022;7.082;2023-06-22T11:02:15;9.73;;;8.73;;
48327;SDS011;34136;51.022;7.082;2023-06-22T11:05:01;10.55;;;8.65;;
48327;SDS011;34136;51.022;7.082;2023-06-22T11:07:48;11.55;;;8.85;;
48327;SDS011;34136;51.022;7.082;2023-06-22T11:10:34;11.75;;;8.98;;
48327;SDS011;34136;51.022;7.082;2023-06-22T11:13:21;11.02;;;9.35;;
48327;SDS011;34136;51.022;7.082;2023-06-22T11:16:07;11.70;;;9.60;;
48327;SDS011;34136;51.022;7.082;2023-06-22T11:18:54;10.35;;;9.27;;
48327;SDS011;34136;51.022;7.082;2023-06-22T11:21:40;11.77;;;10.40;;
48327;SDS011;34136;51.022;7.082;2023-06-22T11:24:27;11.80;;;10.27;;
48327;SDS011;34136;51.022;7.082;2023-06-22T11:27:13;13.07;;;10.20;;
48327;SDS011;34136;51.022;7.082;2023-06-22T11:30:00;13.52;;;10.90;;
48327;SDS011;34136;51.022;7.082;2023-06-22T11:32:46;13.23;;;11.07;;
48327;SDS011;34136;51.022;7.082;2023-06-22T11:35:33;14.52;;;10.98;;
48327;SDS011;34136;51.022;7.082;2023-06-22T11:38:20;13.45;;;10.90;;
48327;SDS011;34136;51.022;7.082;2023-06-22T11:41:06;12.95;;;11.25;;
48327;SDS011;34136;51.022;7.082;2023-06-22T11:43:53;12.45;;;11.25;;
48327;SDS011;34136;51.022;7.082;2023-06-22T11:46:40;14.82;;;11.25;;
48327;SDS011;34136;51.022;7.082;2023-06-22T11:49:27;12.65;;;11.35;;
48327;SDS011;34136;51.022;7.082;2023-06-22T11:52:13;12.95;;;11.75;;
48327;SDS011;34136;51.022;7.082;2023-06-22T11:55:00;13.32;;;12.13;;
48327;SDS011;34136;51.022;7.082;2023-06-22T11:57:56;15.85;;;12.88;;
48327;SDS011;34136;51.022;7.082;2023-06-22T12:00:43;13.63;;;12.32;;
48327;SDS011;34136;51.022;7.082;2023-06-22T12:03:30;13.65;;;12.35;;
48327;SDS011;34136;51.022;7.082;2023-06-22T12:06:16;13.38;;;11.95;;
48327;SDS011;34136;51.022;7.082;2023-06-22T12:09:03;14.02;;;12.52;;
48327;SDS011;34136;51.022;7.082;2023-06-22T12:11:52;12.20;;;11.07;;
48327;SDS011;34136;51.022;7.082;2023-06-22T12:14:38;12.70;;;11.38;;
48327;SDS011;34136;51.022;7.082;2023-06-22T12:17:25;11.93;;;10.68;;
48327;SDS011;34136;51.022;7.082;2023-06-22T12:20:11;13.23;;;12.05;;
48327;SDS011;34136;51.022;7.082;2023-06-22T12:22:58;11.90;;;10.80;;
48327;SDS011;34136;51.022;7.082;2023-06-22T12:25:44;13.15;;;11.50;;
48327;SDS011;34136;51.022;7.082;2023-06-22T12:28:31;12.80;;;11.50;;
48327;SDS011;34136;51.022;7.082;2023-06-22T12:31:17;11.50;;;10.50;;
48327;SDS011;34136;51.022;7.082;2023-06-22T12:34:03;11.32;;;10.32;;
48327;SDS011;34136;51.022;7.082;2023-06-22T12:36:50;12.77;;;11.57;;
48327;SDS011;34136;51.022;7.082;2023-06-22T12:39:37;12.68;;;11.48;;
48327;SDS011;34136;51.022;7.082;2023-06-22T12:42:25;13.95;;;11.77;;
48327;SDS011;34136;51.022;7.082;2023-06-22T12:45:12;13.35;;;12.15;;
48327;SDS011;34136;51.022;7.082;2023-06-22T12:47:58;12.82;;;11.63;;
48327;SDS011;34136;51.022;7.082;2023-06-22T12:50:45;11.93;;;10.82;;
48327;SDS011;34136;51.022;7.082;2023-06-22T12:53:32;11.38;;;10.35;;
48327;SDS011;34136;51.022;7.082;2023-06-22T12:56:18;11.27;;;10.20;;
48327;SDS011;34136;51.022;7.082;2023-06-22T12:59:04;11.25;;;10.10;;
48327;SDS011;34136;51.022;7.082;2023-06-22T13:01:51;10.82;;;9.48;;
48327;SDS011;34136;51.022;7.082;2023-06-22T13:04:37;10.32;;;9.40;;
48327;SDS011;34136;51.022;7.082;2023-06-22T13:07:23;8.15;;;7.32;;
48327;SDS011;34136;51.022;7.082;2023-06-22T13:10:10;7.63;;;6.93;;
48327;SDS011;34136;51.022;7.082;2023-06-22T13:12:56;7.30;;;6.63;;
48327;SDS011;34136;51.022;7.082;2023-06-22T13:15:42;7.72;;;6.97;;
48327;SDS011;34136;51.022;7.082;2023-06-22T13:18:29;6.75;;;6.15;;
48327;SDS011;34136;51.022;7.082;2023-06-22T13:21:16;6.13;;;5.53;;
48327;SDS011;34136;51.022;7.082;2023-06-22T13:24:02;5.55;;;4.53;;
48327;SDS011;34136;51.022;7.082;2023-06-22T13:26:49;5.60;;;5.10;;
48327;SDS011;34136;51.022;7.082;2023-06-22T13:29:35;5.47;;;4.97;;
48327;SDS011;34136;51.022;7.082;2023-06-22T13:32:21;5.78;;;4.93;;
48327;SDS011;34136;51.022;7.082;2023-06-22T13:35:11;5.30;;;4.50;;
48327;SDS011;34136;51.022;7.082;2023-06-22T13:37:57;3.60;;;3.30;;
48327;SDS011;34136;51.022;7.082;2023-06-22T13:40:44;4.63;;;3.90;;
48327;SDS011;34136;51.022;7.082;2023-06-22T13:43:30;4.68;;;3.50;;
48327;SDS011;34136;51.022;7.082;2023-06-22T13:46:17;3.83;;;3.25;;
48327;SDS011;34136;51.022;7.082;2023-06-22T13:49:03;4.07;;;3.40;;
48327;SDS011;34136;51.022;7.082;2023-06-22T13:51:50;3.88;;;3.47;;
48327;SDS011;34136;51.022;7.082;2023-06-22T13:54:37;3.70;;;3.40;;
48327;SDS011;34136;51.022;7.082;2023-06-22T13:57:24;4.03;;;3.63;;
48327;SDS011;34136;51.022;7.082;2023-06-22T14:00:11;4.38;;;3.97;;
48327;SDS011;34136;51.022;7.082;2023-06-22T14:02:58;4.80;;;4.03;;
48327;SDS011;34136;51.022;7.082;2023-06-22T14:05:44;5.00;;;4.55;;
48327;SDS011;34136;51.022;7.082;2023-06-22T14:08:32;6.00;;;4.60;;
48327;SDS011;34136;51.022;7.082;2023-06-22T14:11:19;5.43;;;4.75;;
48327;SDS011;34136;51.022;7.082;2023-06-22T14:14:05;4.57;;;4.18;;
48327;SDS011;34136;51.022;7.082;2023-06-22T14:16:52;5.80;;;4.80;;
48327;SDS011;34136;51.022;7.082;2023-06-22T14:19:38;5.38;;;4.88;;
48327;SDS011;34136;51.022;7.082;2023-06-22T14:22:25;4.57;;;4.18;;
48327;SDS011;34136;51.022;7.082;2023-06-22T14:25:11;5.38;;;4.88;;
48327;SDS011;34136;51.022;7.082;2023-06-22T14:27:58;5.18;;;4.55;;
48327;SDS011;34136;51.022;7.082;2023-06-22T14:30:44;4.63;;;4.22;;
48327;SDS011;34136;51.022;7.082;2023-06-22T14:33:30;5.50;;;4.00;;
48327;SDS011;34136;51.022;7.082;2023-06-22T14:36:17;5.32;;;4.82;;
48327;SDS011;34136;51.022;7.082;2023-06-22T14:39:04;6.57;;;4.75;;
48327;SDS011;34136;51.022;7.082;2023-06-22T14:41:50;4.82;;;4.43;;
48327;SDS011;34136;51.022;7.082;2023-06-22T14:44:36;5.15;;;4.30;;
48327;SDS011;34136;51.022;7.082;2023-06-22T14:47:23;6.22;;;4.57;;
48327;SDS011;34136;51.022;7.082;2023-06-22T14:50:09;9.05;;;4.65;;
48327;SDS011;34136;51.022;7.082;2023-06-22T14:52:56;4.93;;;4.40;;
48327;SDS011;34136;51.022;7.082;2023-06-22T14:55:42;6.15;;;4.78;;
48327;SDS011;34136;51.022;7.082;2023-06-22T14:58:29;7.57;;;4.93;;
48327;SDS011;34136;51.022;7.082;2023-06-22T15:01:17;8.48;;;5.80;;
48327;SDS011;34136;51.022;7.082;2023-06-22T15:04:03;8.10;;;5.18;;
48327;SDS011;34136;51.022;7.082;2023-06-22T15:06:50;10.35;;;7.50;;
48327;SDS011;34136;51.022;7.082;2023-06-22T15:09:36;9.25;;;6.35;;
48327;SDS011;34136;51.022;7.082;2023-06-22T15:12:22;7.97;;;6.63;;
48327;SDS011;34136;51.022;7.082;2023-06-22T15:15:09;8.10;;;7.00;;
48327;SDS011;34136;51.022;7.082;2023-06-22T15:17:55;7.28;;;6.57;;
48327;SDS011;34136;51.022;7.082;2023-06-22T15:20:43;8.02;;;5.95;;
48327;SDS011;34136;51.022;7.082;2023-06-22T15:23:30;10.63;;;6.80;;
48327;SDS011;34136;51.022;7.082;2023-06-22T15:26:17;8.30;;;7.35;;
48327;SDS011;34136;51.022;7.082;2023-06-22T15:29:03;11.73;;;7.82;;
48327;SDS011;34136;51.022;7.082;2023-06-22T15:31:51;12.30;;;8.48;;
48327;SDS011;34136;51.022;7.082;2023-06-22T15:34:37;8.43;;;7.03;;
48327;SDS011;34136;51.022;7.082;2023-06-22T15:37:24;8.10;;;6.88;;
48327;SDS011;34136;51.022;7.082;2023-06-22T15:40:10;7.18;;;6.47;;
48327;SDS011;34136;51.022;7.082;2023-06-22T15:42:57;13.07;;;8.18;;
48327;SDS011;34136;51.022;7.082;2023-06-22T15:45:43;9.15;;;7.78;;
48327;SDS011;34136;51.022;7.082;2023-06-22T15:48:30;8.45;;;7.55;;
48327;SDS011;34136;51.022;7.082;2023-06-22T15:51:16;10.15;;;8.00;;
48327;SDS011;34136;51.022;7.082;2023-06-22T15:54:02;8.98;;;7.82;;
48327;SDS011;34136;51.022;7.082;2023-06-22T15:56:49;8.25;;;7.45;;
48327;SDS011;34136;51.022;7.082;2023-06-22T15:59:35;10.35;;;7.63;;
48327;SDS011;34136;51.022;7.082;2023-06-22T16:02:22;8.13;;;7.35;;
48327;SDS011;34136;51.022;7.082;2023-06-22T16:05:08;8.32;;;6.90;;
48327;SDS011;34136;51.022;7.082;2023-06-22T16:07:55;9.60;;;8.50;;
48327;SDS011;34136;51.022;7.082;2023-06-22T16:10:42;9.48;;;8.65;;
48327;SDS011;34136;51.022;7.082;2023-06-22T16:13:28;9.65;;;8.75;;
48327;SDS011;34136;51.022;7.082;2023-06-22T16:16:15;8.10;;;7.40;;
48327;SDS011;34136;51.022;7.082;2023-06-22T16:19:01;8.27;;;7.47;;
48327;SDS011;34136;51.022;7.082;2023-06-22T16:21:48;7.97;;;7.13;;
48327;SDS011;34136;51.022;7.082;2023-06-22T16:24:34;7.93;;;7.13;;
48327;SDS011;34136;51.022;7.082;2023-06-22T16:27:20;9.00;;;8.20;;
48327;SDS011;34136;51.022;7.082;2023-06-22T16:30:07;13.57;;;12.45;;
48327;SDS011;34136;51.022;7.082;2023-06-22T16:32:55;12.02;;;10.82;;
48327;SDS011;34136;51.022;7.082;2023-06-22T16:35:42;10.48;;;8.15;;
48327;SDS011;34136;51.022;7.082;2023-06-22T16:38:29;8.35;;;7.55;;
48327;SDS011;34136;51.022;7.082;2023-06-22T16:41:16;9.18;;;8.07;;
48327;SDS011;34136;51.022;7.082;2023-06-22T16:44:02;9.80;;;8.50;;